createdAt,value
2019-03-03T00:01:13.994Z,5.10
2019-03-03T00:03:43.510Z,5.00
2019-03-03T00:06:11.221Z,5.00
2019-03-03T00:08:38.944Z,4.80
2019-03-03T00:11:07.144Z,4.90
2019-03-03T00:13:34.862Z,4.80
2019-03-03T00:16:02.618Z,4.80
2019-03-03T00:18:30.326Z,4.80
2019-03-03T00:20:58.049Z,4.70
2019-03-03T00:23:25.746Z,4.80
2019-03-03T00:25:53.493Z,4.70
2019-03-03T00:28:21.203Z,4.60
2019-03-03T00:30:49.267Z,4.60
2019-03-03T00:33:16.971Z,4.50
2019-03-03T00:35:45.000Z,4.60
2019-03-03T00:38:29.556Z,4.60
2019-03-03T00:41:16.709Z,4.60
2019-03-03T00:44:06.663Z,4.70
2019-03-03T00:47:05.552Z,4.60
2019-03-03T00:49:50.940Z,4.60
2019-03-03T00:52:27.494Z,4.70
2019-03-03T00:55:19.456Z,4.60
2019-03-03T00:58:01.598Z,4.70
2019-03-03T01:00:51.682Z,4.70
2019-03-03T01:03:26.114Z,4.70
2019-03-03T01:06:16.680Z,4.70
2019-03-03T01:08:54.105Z,4.70
2019-03-03T01:11:42.877Z,4.70
2019-03-03T01:14:21.238Z,4.70
2019-03-03T01:17:24.434Z,4.70
2019-03-03T01:20:10.798Z,4.70
2019-03-03T01:22:53.674Z,4.70
2019-03-03T01:25:21.404Z,4.60
2019-03-03T01:27:49.121Z,4.60
2019-03-03T01:30:16.942Z,4.60
2019-03-03T01:32:44.701Z,4.60
2019-03-03T01:35:13.222Z,4.50
2019-03-03T01:37:40.969Z,4.50
2019-03-03T01:40:09.291Z,4.60
2019-03-03T01:42:37.057Z,4.50
2019-03-03T01:45:05.869Z,4.50
2019-03-03T01:47:34.085Z,4.60
2019-03-03T01:50:01.921Z,4.50
2019-03-03T01:52:30.191Z,4.50
2019-03-03T01:54:58.628Z,4.40
2019-03-03T01:57:27.214Z,4.40
2019-03-03T01:59:56.213Z,4.40
2019-03-03T02:02:24.649Z,4.40
2019-03-03T02:04:53.297Z,4.30
2019-03-03T02:07:21.624Z,4.30
2019-03-03T02:09:50.069Z,4.30
2019-03-03T02:12:18.470Z,4.30
2019-03-03T02:14:46.538Z,4.20
2019-03-03T02:17:14.808Z,4.20
2019-03-03T02:19:43.288Z,4.30
2019-03-03T02:22:11.451Z,4.20
2019-03-03T02:24:40.019Z,4.20
2019-03-03T02:27:08.220Z,4.10
2019-03-03T02:29:36.800Z,4.10
2019-03-03T02:32:06.448Z,4.20
2019-03-03T02:34:35.176Z,4.10
2019-03-03T02:37:03.534Z,4.10
2019-03-03T02:39:31.959Z,4.10
2019-03-03T02:42:00.016Z,4.10
2019-03-03T02:44:28.766Z,4.10
2019-03-03T02:46:57.081Z,4.10
2019-03-03T02:49:25.155Z,4.10
2019-03-03T02:51:53.541Z,4.10
2019-03-03T02:54:21.586Z,4.20
2019-03-03T02:56:49.797Z,4.10
2019-03-03T02:59:17.751Z,4.20
2019-03-03T03:01:53.711Z,4.20
2019-03-03T03:04:21.874Z,4.20
2019-03-03T03:06:55.369Z,4.20
2019-03-03T03:09:26.496Z,4.20
2019-03-03T03:12:03.254Z,4.30
2019-03-03T03:14:59.765Z,4.40
2019-03-03T03:17:52.675Z,4.50
2019-03-03T03:20:40.109Z,4.50
2019-03-03T03:23:27.857Z,4.50
2019-03-03T03:26:13.877Z,4.50
2019-03-03T03:28:51.759Z,4.60
2019-03-03T03:31:25.464Z,4.60
2019-03-03T03:33:58.964Z,4.70
2019-03-03T03:36:45.436Z,4.70
2019-03-03T03:39:36.092Z,4.70
2019-03-03T03:42:20.791Z,4.70
2019-03-03T03:45:06.863Z,4.70
2019-03-03T03:48:06.260Z,4.60
2019-03-03T03:50:45.847Z,4.60
2019-03-03T03:53:26.116Z,4.50
2019-03-03T03:56:19.779Z,4.50
2019-03-03T03:58:54.053Z,4.50
2019-03-03T04:01:32.627Z,4.40
2019-03-03T04:04:22.915Z,4.40
2019-03-03T04:07:06.428Z,4.40
2019-03-03T04:09:47.542Z,4.30
2019-03-03T04:12:53.697Z,4.40
2019-03-03T04:15:34.131Z,4.40
2019-03-03T04:18:21.972Z,4.40
2019-03-03T04:21:21.025Z,4.30
2019-03-03T04:24:02.253Z,4.30
2019-03-03T04:26:48.387Z,4.30
2019-03-03T04:29:38.408Z,4.20
2019-03-03T04:32:28.692Z,4.20
2019-03-03T04:35:23.905Z,4.10
2019-03-03T04:38:24.644Z,4.10
2019-03-03T04:41:15.003Z,4.10
2019-03-03T04:43:49.637Z,4.10
2019-03-03T04:46:39.435Z,4.10
2019-03-03T04:49:27.078Z,4.00
2019-03-03T04:52:20.769Z,4.00
2019-03-03T04:55:17.443Z,4.00
2019-03-03T04:58:03.589Z,4.00
2019-03-03T05:00:42.778Z,4.00
2019-03-03T05:03:49.296Z,4.00
2019-03-03T05:06:40.906Z,4.00
2019-03-03T05:09:18.250Z,4.10
2019-03-03T05:12:38.363Z,4.00
2019-03-03T05:15:44.203Z,4.00
2019-03-03T05:18:28.839Z,4.00
2019-03-03T05:20:56.945Z,3.90
2019-03-03T05:23:25.244Z,3.80
2019-03-03T05:25:53.617Z,3.80
2019-03-03T05:28:21.365Z,3.80
2019-03-03T05:30:49.111Z,3.70
2019-03-03T05:33:16.928Z,3.70
2019-03-03T05:35:45.517Z,3.70
2019-03-03T05:38:13.856Z,3.70
2019-03-03T05:40:41.962Z,3.70
2019-03-03T05:43:09.700Z,3.70
2019-03-03T05:45:37.858Z,3.70
2019-03-03T05:48:05.622Z,3.60
2019-03-03T05:50:33.329Z,3.50
2019-03-03T05:53:01.083Z,3.50
2019-03-03T05:55:29.226Z,3.50
2019-03-03T05:57:56.930Z,3.50
2019-03-03T06:00:25.077Z,3.50
2019-03-03T06:02:52.817Z,3.50
2019-03-03T06:05:20.558Z,3.60
2019-03-03T06:07:48.488Z,3.50
2019-03-03T06:10:16.231Z,3.40
2019-03-03T06:12:43.970Z,3.40
2019-03-03T06:15:12.793Z,3.50
2019-03-03T06:17:40.767Z,3.50
2019-03-03T06:20:09.847Z,3.50
2019-03-03T06:22:38.013Z,3.40
2019-03-03T06:25:05.866Z,3.40
2019-03-03T06:27:34.344Z,3.50
2019-03-03T06:30:02.495Z,3.50
2019-03-03T06:32:30.543Z,3.50
2019-03-03T06:34:58.665Z,3.50
2019-03-03T06:37:26.784Z,3.50
2019-03-03T06:39:54.562Z,3.40
2019-03-03T06:42:22.585Z,3.40
2019-03-03T06:44:50.341Z,3.50
2019-03-03T06:47:18.105Z,3.60
2019-03-03T06:49:46.161Z,3.60
2019-03-03T06:52:13.884Z,3.70
2019-03-03T06:54:43.949Z,3.80
2019-03-03T06:57:12.538Z,3.90
2019-03-03T06:59:40.264Z,4.00
2019-03-03T07:02:08.361Z,4.30
2019-03-03T07:04:36.451Z,4.60
2019-03-03T07:07:04.519Z,5.00
2019-03-03T07:09:32.996Z,5.40
2019-03-03T07:12:00.796Z,5.60
2019-03-03T07:14:29.105Z,5.90
2019-03-03T07:16:57.308Z,6.30
2019-03-03T07:19:26.224Z,6.70
2019-03-03T07:21:56.307Z,7.00
2019-03-03T07:24:24.025Z,7.40
2019-03-03T07:26:52.073Z,7.40
2019-03-03T07:29:19.813Z,7.40
2019-03-03T07:31:47.562Z,7.20
2019-03-03T07:34:15.278Z,7.00
2019-03-03T07:36:43.332Z,6.90
2019-03-03T07:39:16.034Z,6.70
2019-03-03T07:41:44.050Z,6.70
2019-03-03T07:44:14.091Z,7.00
2019-03-03T07:46:42.141Z,7.50
2019-03-03T07:49:10.563Z,8.20
2019-03-03T07:51:38.291Z,8.50
2019-03-03T07:54:05.988Z,9.00
2019-03-03T07:56:34.074Z,9.40
2019-03-03T07:59:01.801Z,9.90
2019-03-03T08:01:29.587Z,10.30
2019-03-03T08:03:57.432Z,10.60
2019-03-03T08:06:25.222Z,10.90
2019-03-03T08:08:52.983Z,11.10
2019-03-03T08:11:20.737Z,10.90
2019-03-03T08:13:48.500Z,10.90
2019-03-03T08:16:17.070Z,10.50
2019-03-03T08:18:45.126Z,10.00
2019-03-03T08:21:12.883Z,9.70
2019-03-03T08:23:41.008Z,9.50
2019-03-03T08:26:09.176Z,9.40
2019-03-03T08:28:37.631Z,9.10
2019-03-03T08:31:05.405Z,9.00
2019-03-03T08:33:33.581Z,8.80
2019-03-03T08:36:01.328Z,8.70
2019-03-03T08:38:29.518Z,8.60
2019-03-03T08:40:57.290Z,8.50
2019-03-03T08:43:44.446Z,8.70
2019-03-03T08:46:23.129Z,8.80
2019-03-03T08:49:01.621Z,8.80
2019-03-03T08:51:47.135Z,8.80
2019-03-03T08:54:37.561Z,8.80
2019-03-03T08:57:20.161Z,8.70
2019-03-03T09:00:04.139Z,8.70
2019-03-03T09:03:03.106Z,8.60
2019-03-03T09:06:02.477Z,8.50
2019-03-03T09:08:52.477Z,8.60
2019-03-03T09:11:44.072Z,8.80
2019-03-03T09:14:34.497Z,9.10
2019-03-03T09:17:20.190Z,9.50
2019-03-03T09:20:01.682Z,10.00
2019-03-03T09:22:39.070Z,10.60
2019-03-03T09:25:26.391Z,11.40
2019-03-03T09:28:32.101Z,12.50
2019-03-03T09:31:26.093Z,13.20
2019-03-03T09:34:19.105Z,13.90
2019-03-03T09:36:53.771Z,14.50
2019-03-03T09:39:43.407Z,14.90
2019-03-03T09:42:28.687Z,15.20
2019-03-03T09:45:21.823Z,15.70
2019-03-03T09:48:11.690Z,15.80
2019-03-03T09:51:16.749Z,16.20
2019-03-03T09:54:22.247Z,16.60
2019-03-03T09:57:15.050Z,16.70
2019-03-03T10:00:05.051Z,17.00
2019-03-03T10:02:58.079Z,17.20
2019-03-03T10:05:43.694Z,16.90
2019-03-03T10:08:37.257Z,16.80
2019-03-03T10:11:30.610Z,16.90
2019-03-03T10:14:18.924Z,16.70
2019-03-03T10:17:03.189Z,17.00
2019-03-03T10:19:47.114Z,17.40
2019-03-03T10:22:29.034Z,17.70
2019-03-03T10:25:24.808Z,18.20
2019-03-03T10:28:03.655Z,18.40
2019-03-03T10:31:02.737Z,18.70
2019-03-03T10:33:48.632Z,18.80
2019-03-03T10:36:47.905Z,18.50
2019-03-03T10:39:36.006Z,18.60
2019-03-03T10:42:41.825Z,18.70
2019-03-03T10:45:41.509Z,18.70
2019-03-03T10:48:33.135Z,18.70
2019-03-03T10:51:28.764Z,18.90
2019-03-03T10:54:18.502Z,18.90
2019-03-03T10:57:05.736Z,18.70
2019-03-03T10:59:43.670Z,18.80
2019-03-03T11:02:29.125Z,18.70
2019-03-03T11:05:14.760Z,18.50
2019-03-03T11:07:56.936Z,18.60
2019-03-03T11:10:44.955Z,18.60
2019-03-03T11:13:34.945Z,18.50
2019-03-03T11:16:29.280Z,18.40
2019-03-03T11:19:26.642Z,18.20
2019-03-03T11:22:12.632Z,18.20
2019-03-03T11:24:53.279Z,18.00
2019-03-03T11:27:40.562Z,18.10
2019-03-03T11:30:32.626Z,18.50
2019-03-03T11:33:31.527Z,18.60
2019-03-03T11:36:27.660Z,18.80
2019-03-03T11:39:13.233Z,19.20
2019-03-03T11:42:03.521Z,19.40
2019-03-03T11:45:03.096Z,19.70
2019-03-03T11:48:04.215Z,19.50
2019-03-03T11:50:33.633Z,19.30
2019-03-03T11:53:15.984Z,19.00
2019-03-03T11:56:05.936Z,18.70
2019-03-03T11:58:51.611Z,18.60
2019-03-03T12:01:37.552Z,18.30
2019-03-03T12:04:20.308Z,18.20
2019-03-03T12:07:19.625Z,18.00
2019-03-03T12:10:05.594Z,18.00
2019-03-03T12:12:51.487Z,18.10
2019-03-03T12:15:29.166Z,18.00
2019-03-03T12:18:06.469Z,18.10
2019-03-03T12:20:43.785Z,18.10
2019-03-03T12:23:33.807Z,18.10
2019-03-03T12:26:20.923Z,18.20
2019-03-03T12:29:22.995Z,18.30
2019-03-03T12:32:01.334Z,18.30
2019-03-03T12:34:46.920Z,18.40
2019-03-03T12:37:24.686Z,18.50
2019-03-03T12:39:59.032Z,18.60
2019-03-03T12:42:49.091Z,18.90
2019-03-03T12:45:31.655Z,19.20
2019-03-03T12:48:27.924Z,19.20
2019-03-03T12:51:09.522Z,19.30
2019-03-03T12:53:47.317Z,19.30
2019-03-03T12:56:34.042Z,19.40
2019-03-03T12:59:23.980Z,19.30
2019-03-03T13:02:17.282Z,19.30
2019-03-03T13:05:01.172Z,19.20
2019-03-03T13:07:47.143Z,19.30
2019-03-03T13:10:34.335Z,19.40
2019-03-03T13:13:24.548Z,19.30
2019-03-03T13:16:12.101Z,19.10
2019-03-03T13:19:02.111Z,19.10
2019-03-03T13:21:49.224Z,19.00
2019-03-03T13:24:35.182Z,19.00
2019-03-03T13:27:22.742Z,18.90
2019-03-03T13:30:28.076Z,18.90
2019-03-03T13:33:27.302Z,19.00
2019-03-03T13:36:40.054Z,19.10
2019-03-03T13:39:28.257Z,19.00
2019-03-03T13:42:06.023Z,18.90
2019-03-03T13:44:34.138Z,19.00
2019-03-03T13:47:01.866Z,18.90
2019-03-03T13:49:29.677Z,19.00
2019-03-03T13:51:57.400Z,19.00
2019-03-03T13:54:25.408Z,19.10
2019-03-03T13:56:53.121Z,19.20
2019-03-03T13:59:21.137Z,19.20
2019-03-03T14:01:49.302Z,19.20
2019-03-03T14:04:17.094Z,19.20
2019-03-03T14:06:45.257Z,19.20
2019-03-03T14:09:13.540Z,19.20
2019-03-03T14:11:41.300Z,19.20
2019-03-03T14:14:09.009Z,19.20
2019-03-03T14:16:36.781Z,19.30
2019-03-03T14:19:08.862Z,19.30
2019-03-03T14:21:36.974Z,19.30
2019-03-03T14:24:05.573Z,19.40
2019-03-03T14:26:33.272Z,19.30
2019-03-03T14:29:03.603Z,19.30
2019-03-03T14:31:31.295Z,19.20
2019-03-03T14:33:59.033Z,19.30
2019-03-03T14:36:26.764Z,19.30
2019-03-03T14:38:55.206Z,19.20
2019-03-03T14:41:22.927Z,19.20
2019-03-03T14:43:50.716Z,19.10
2019-03-03T14:46:18.856Z,19.00
2019-03-03T14:48:46.585Z,18.90
2019-03-03T14:51:14.736Z,18.90
2019-03-03T14:53:42.824Z,18.90
2019-03-03T14:56:10.934Z,19.00
2019-03-03T14:58:38.759Z,19.00
2019-03-03T15:01:06.658Z,19.10
2019-03-03T15:03:34.372Z,19.10
2019-03-03T15:06:02.465Z,19.10
2019-03-03T15:08:30.206Z,19.00
2019-03-03T15:10:58.295Z,19.00
2019-03-03T15:13:26.039Z,19.00
2019-03-03T15:15:53.814Z,19.00
2019-03-03T15:18:21.534Z,19.00
2019-03-03T15:20:52.293Z,18.90
2019-03-03T15:23:20.050Z,18.80
2019-03-03T15:25:48.399Z,18.80
2019-03-03T15:28:16.729Z,18.80
2019-03-03T15:30:44.600Z,18.70
2019-03-03T15:33:12.974Z,18.70
2019-03-03T15:35:40.728Z,18.70
2019-03-03T15:38:09.622Z,18.70
2019-03-03T15:40:37.337Z,18.80
2019-03-03T15:43:05.673Z,18.70
2019-03-03T15:45:33.480Z,18.70
2019-03-03T15:48:01.204Z,18.70
2019-03-03T15:50:28.911Z,18.70
2019-03-03T15:52:57.445Z,18.70
2019-03-03T15:55:25.211Z,18.70
2019-03-03T15:57:52.922Z,18.70
2019-03-03T16:00:22.914Z,18.70
2019-03-03T16:02:51.137Z,18.70
2019-03-03T16:05:19.423Z,18.70
2019-03-03T16:07:47.654Z,18.60
2019-03-03T16:10:15.581Z,18.50
2019-03-03T16:12:43.976Z,18.50
2019-03-03T16:15:12.389Z,18.40
2019-03-03T16:17:40.857Z,18.30
2019-03-03T16:20:11.260Z,18.20
2019-03-03T16:22:39.087Z,18.10
2019-03-03T16:25:07.863Z,18.10
2019-03-03T16:27:35.649Z,18.00
2019-03-03T16:30:04.349Z,17.90
2019-03-03T16:32:32.139Z,17.90
2019-03-03T16:34:59.946Z,17.80
2019-03-03T16:37:27.680Z,17.80
2019-03-03T16:39:55.414Z,17.80
2019-03-03T16:42:23.881Z,17.70
2019-03-03T16:45:01.541Z,17.70
2019-03-03T16:47:29.310Z,17.60
2019-03-03T16:49:57.051Z,17.60
2019-03-03T16:52:24.783Z,17.70
2019-03-03T16:54:52.868Z,17.70
2019-03-03T16:57:21.143Z,17.60
2019-03-03T16:59:48.960Z,17.60
2019-03-03T17:02:16.927Z,17.60
2019-03-03T17:04:45.020Z,17.60
2019-03-03T17:07:12.889Z,17.60
2019-03-03T17:09:40.669Z,17.60
2019-03-03T17:12:08.393Z,17.50
2019-03-03T17:14:36.278Z,17.40
2019-03-03T17:17:06.842Z,17.20
2019-03-03T17:19:35.158Z,17.10
2019-03-03T17:22:03.011Z,17.00
2019-03-03T17:24:39.886Z,16.90
2019-03-03T17:27:08.278Z,16.80
2019-03-03T17:29:36.059Z,16.70
2019-03-03T17:32:04.110Z,16.60
2019-03-03T17:34:32.404Z,16.50
2019-03-03T17:37:01.251Z,16.40
2019-03-03T17:39:29.074Z,16.30
2019-03-03T17:41:56.840Z,16.10
2019-03-03T17:44:24.610Z,16.00
2019-03-03T17:46:52.526Z,15.90
2019-03-03T17:49:20.250Z,15.80
2019-03-03T17:51:48.025Z,15.50
2019-03-03T17:54:16.933Z,15.40
2019-03-03T17:56:45.177Z,15.30
2019-03-03T17:59:12.919Z,15.20
2019-03-03T18:01:41.278Z,15.10
2019-03-03T18:04:09.235Z,15.00
2019-03-03T18:06:38.938Z,15.00
2019-03-03T18:09:08.255Z,14.80
2019-03-03T18:11:36.923Z,14.70
2019-03-03T18:14:05.403Z,14.50
2019-03-03T18:16:33.190Z,14.40
2019-03-03T18:19:01.070Z,14.20
2019-03-03T18:21:28.768Z,14.10
2019-03-03T18:23:59.361Z,14.00
2019-03-03T18:26:27.218Z,13.90
2019-03-03T18:28:55.042Z,13.80
2019-03-03T18:31:23.101Z,13.60
2019-03-03T18:33:50.807Z,13.50
2019-03-03T18:36:20.006Z,13.40
2019-03-03T18:38:48.166Z,13.20
2019-03-03T18:41:16.664Z,13.00
2019-03-03T18:43:44.456Z,12.90
2019-03-03T18:46:13.159Z,12.90
2019-03-03T18:48:42.689Z,12.70
2019-03-03T18:51:11.969Z,12.60
2019-03-03T18:53:40.889Z,12.60
2019-03-03T18:56:10.105Z,12.60
2019-03-03T18:58:38.613Z,12.50
2019-03-03T19:01:06.956Z,12.40
2019-03-03T19:03:36.095Z,12.40
2019-03-03T19:06:13.935Z,12.30
2019-03-03T19:08:44.423Z,12.30
2019-03-03T19:11:16.239Z,12.20
2019-03-03T19:13:52.599Z,12.20
2019-03-03T19:16:28.762Z,12.10
2019-03-03T19:19:10.527Z,12.00
2019-03-03T19:21:45.745Z,12.00
2019-03-03T19:24:23.335Z,12.00
2019-03-03T19:26:58.107Z,11.90
2019-03-03T19:29:33.075Z,11.80
2019-03-03T19:32:10.308Z,11.70
2019-03-03T19:34:43.209Z,11.70
2019-03-03T19:37:16.252Z,11.70
2019-03-03T19:39:47.945Z,11.70
2019-03-03T19:42:33.329Z,11.70
2019-03-03T19:45:14.292Z,11.70
2019-03-03T19:47:55.310Z,11.70
2019-03-03T19:50:39.680Z,11.70
2019-03-03T19:53:13.793Z,11.70
2019-03-03T19:55:52.180Z,11.70
2019-03-03T19:58:33.056Z,11.70
2019-03-03T20:01:09.080Z,11.80
2019-03-03T20:03:48.200Z,11.70
2019-03-03T20:06:28.170Z,11.70
2019-03-03T20:09:07.862Z,11.60
2019-03-03T20:12:01.904Z,11.70
2019-03-03T20:14:44.112Z,11.70
2019-03-03T20:17:24.997Z,11.60
2019-03-03T20:19:53.604Z,11.50
2019-03-03T20:22:21.808Z,11.60
2019-03-03T20:24:59.606Z,11.50
2019-03-03T20:27:37.247Z,11.50
2019-03-03T20:30:16.213Z,11.50
2019-03-03T20:33:01.051Z,11.40
2019-03-03T20:35:45.353Z,11.40
2019-03-03T20:38:19.485Z,11.40
2019-03-03T20:40:56.371Z,11.30
2019-03-03T20:43:33.070Z,11.30
2019-03-03T20:46:14.439Z,11.30
2019-03-03T20:48:49.398Z,11.20
2019-03-03T20:51:19.390Z,11.20
2019-03-03T20:53:56.679Z,11.30
2019-03-03T20:56:52.028Z,11.30
2019-03-03T20:59:47.939Z,11.40
2019-03-03T21:02:26.499Z,11.50
2019-03-03T21:05:10.229Z,11.60
2019-03-03T21:07:51.794Z,11.70
2019-03-03T21:10:27.300Z,11.80
2019-03-03T21:13:01.810Z,12.00
2019-03-03T21:15:35.135Z,12.20
2019-03-03T21:18:14.310Z,12.30
2019-03-03T21:20:50.920Z,12.40
2019-03-03T21:23:34.969Z,12.40
2019-03-03T21:26:11.649Z,12.50
2019-03-03T21:28:45.114Z,12.50
2019-03-03T21:31:26.670Z,12.50
2019-03-03T21:34:06.038Z,12.50
2019-03-03T21:36:41.920Z,12.50
2019-03-03T21:39:18.612Z,12.40
2019-03-03T21:41:57.552Z,12.30
2019-03-03T21:44:30.607Z,12.30
2019-03-03T21:47:14.366Z,12.30
2019-03-03T21:49:45.789Z,12.20
2019-03-03T21:52:28.841Z,12.10
2019-03-03T21:55:04.536Z,12.10
2019-03-03T21:57:55.565Z,12.10
2019-03-03T22:00:42.182Z,12.00
2019-03-03T22:03:38.514Z,12.00
2019-03-03T22:06:35.700Z,12.10
2019-03-03T22:09:26.031Z,12.00
2019-03-03T22:12:07.087Z,11.90
2019-03-03T22:15:10.850Z,11.80
2019-03-03T22:18:04.024Z,11.70
2019-03-03T22:20:51.629Z,11.60
2019-03-03T22:23:31.400Z,11.50
2019-03-03T22:26:16.315Z,11.50
2019-03-03T22:28:53.975Z,11.50
2019-03-03T22:31:38.037Z,11.60
2019-03-03T22:34:28.464Z,11.70
2019-03-03T22:37:20.242Z,11.80
2019-03-03T22:40:04.549Z,11.80
2019-03-03T22:42:47.628Z,11.80
2019-03-03T22:45:42.843Z,11.80
2019-03-03T22:48:28.767Z,11.90
2019-03-03T22:51:18.629Z,12.00
2019-03-03T22:54:09.106Z,12.00
2019-03-03T22:56:49.763Z,12.00
2019-03-03T22:59:34.841Z,12.00
2019-03-03T23:02:22.312Z,12.00
2019-03-03T23:05:41.534Z,12.00
2019-03-03T23:08:55.131Z,12.00
2019-03-03T23:12:09.916Z,11.90
2019-03-03T23:15:13.254Z,12.10
2019-03-03T23:18:24.275Z,12.20
2019-03-03T23:21:21.990Z,12.20
2019-03-03T23:24:34.538Z,12.30
2019-03-03T23:27:06.538Z,12.40
2019-03-03T23:29:38.738Z,12.30
2019-03-03T23:32:31.064Z,12.30
2019-03-03T23:35:07.626Z,12.30
2019-03-03T23:37:38.064Z,12.30
2019-03-03T23:40:15.280Z,12.30
2019-03-03T23:42:48.788Z,12.30
2019-03-03T23:45:21.954Z,12.30
2019-03-03T23:47:58.260Z,12.40
2019-03-03T23:50:44.468Z,12.30
2019-03-03T23:53:20.662Z,12.30
2019-03-03T23:55:55.629Z,12.30
2019-03-03T23:58:29.534Z,12.30
